createdAt,value
2016-05-11T00:00:49.762Z,51.06
2016-05-11T00:01:49.764Z,51.25
2016-05-11T00:02:49.767Z,51.06
2016-05-11T00:03:49.770Z,51.25
2016-05-11T00:04:49.772Z,51.25
2016-05-11T00:05:49.775Z,51.89
2016-05-11T00:06:49.762Z,52.18
2016-05-11T00:07:49.780Z,52.75
2016-05-11T00:08:49.784Z,52.66
2016-05-11T00:09:49.786Z,53.23
2016-05-11T00:10:49.788Z,53.33
2016-05-11T00:11:49.636Z,53.33
2016-05-11T00:12:49.794Z,53.62
2016-05-11T00:13:49.780Z,54.07
2016-05-11T00:14:49.784Z,54.55
2016-05-11T00:15:49.786Z,54.36
2016-05-11T00:16:49.789Z,54.83
2016-05-11T00:17:49.791Z,55.41
2016-05-11T00:18:49.794Z,55.6
2016-05-11T00:19:49.782Z,55.31
2016-05-11T00:20:49.784Z,54.83
2016-05-11T00:21:49.802Z,54.36
2016-05-11T00:22:49.790Z,54.36
2016-05-11T00:23:49.807Z,53.88
2016-05-11T00:24:49.858Z,53.49
2016-05-11T00:25:49.798Z,52.66
2016-05-11T00:26:49.801Z,52.56
2016-05-11T00:27:49.804Z,51.99
2016-05-11T00:28:49.821Z,52.09
2016-05-11T00:29:49.856Z,51.51
2016-05-11T00:30:49.811Z,51.61
2016-05-11T00:31:49.814Z,51.89
2016-05-11T00:32:49.817Z,51.89
2016-05-11T00:33:49.820Z,52.28
2016-05-11T00:34:49.822Z,52.18
2016-05-11T00:35:49.809Z,51.99
2016-05-11T00:36:49.828Z,51.7
2016-05-11T00:37:49.814Z,51.99
2016-05-11T00:38:49.817Z,52.37
2016-05-11T00:39:49.820Z,52.09
2016-05-11T00:40:49.822Z,52.47
2016-05-11T00:41:49.825Z,53.62
2016-05-11T00:42:49.812Z,53.42
2016-05-11T00:43:49.816Z,53.81
2016-05-11T00:44:49.833Z,53.71
2016-05-11T00:45:49.836Z,53.62
2016-05-11T00:46:49.824Z,53.97
2016-05-11T00:47:49.826Z,54.07
2016-05-11T00:48:49.829Z,54.07
2016-05-11T00:49:49.675Z,53.78
2016-05-11T00:50:49.834Z,53.88
2016-05-11T00:51:49.837Z,54.26
2016-05-11T00:52:49.839Z,53.88
2016-05-11T00:53:49.842Z,54.26
2016-05-11T00:54:49.845Z,53.3
2016-05-11T00:55:49.832Z,53.69
2016-05-11T00:56:49.850Z,53.91
2016-05-11T00:57:49.837Z,53.4
2016-05-11T00:58:49.840Z,53.4
2016-05-11T00:59:49.686Z,53.97
2016-05-11T01:00:49.845Z,53.78
2016-05-11T01:01:49.847Z,53.78
2016-05-11T01:02:49.850Z,54.55
2016-05-11T01:03:49.869Z,54.45
2016-05-11T01:04:49.856Z,54.36
2016-05-11T01:05:49.859Z,55.31
2016-05-11T01:06:49.705Z,55.22
2016-05-11T01:07:49.895Z,55.51
2016-05-11T01:08:49.710Z,55.67
2016-05-11T01:09:49.853Z,56.43
2016-05-11T01:10:49.716Z,56.91
2016-05-11T01:11:49.859Z,56.72
2016-05-11T01:12:49.862Z,57.2
2016-05-11T01:13:49.864Z,57.29
2016-05-11T01:14:49.930Z,56.82
2016-05-11T01:15:49.854Z,57.01
2016-05-11T01:16:49.717Z,57.1
2016-05-11T01:17:49.859Z,57.29
2016-05-11T01:18:49.877Z,57.39
2016-05-11T01:19:49.865Z,57.39
2016-05-11T01:20:49.868Z,57.29
2016-05-11T01:21:49.886Z,57.01
2016-05-11T01:22:49.716Z,57.58
2016-05-11T01:23:49.876Z,57.48
2016-05-11T01:24:49.878Z,57.77
2016-05-11T01:25:49.741Z,57.87
2016-05-11T01:26:49.884Z,57.77
2016-05-11T01:27:49.887Z,57.68
2016-05-11T01:28:49.890Z,57.87
2016-05-11T01:29:49.735Z,57.68
2016-05-11T01:30:49.878Z,57.77
2016-05-11T01:31:49.897Z,57.58
2016-05-11T01:32:49.885Z,58.06
2016-05-11T01:33:49.887Z,57.97
2016-05-11T01:34:49.890Z,58.34
2016-05-11T01:35:49.892Z,57.97
2016-05-11T01:36:49.895Z,58.83
2016-05-11T01:37:49.897Z,59.11
2016-05-11T01:38:49.901Z,58.89
2016-05-11T01:39:49.903Z,59.47
2016-05-11T01:40:49.905Z,59.18
2016-05-11T01:41:49.737Z,59.94
2016-05-11T01:42:49.895Z,60.42
2016-05-11T01:43:49.930Z,60.9
2016-05-11T01:44:49.901Z,61.47
2016-05-11T01:45:49.903Z,61.19
2016-05-11T01:46:49.905Z,61.95
2016-05-11T01:47:49.908Z,62.04
2016-05-11T01:48:49.912Z,62.49
2016-05-11T01:49:49.758Z,62.78
2016-05-11T01:50:49.902Z,62.4
2016-05-11T01:51:49.919Z,62.97
2016-05-11T01:52:49.766Z,63.26
2016-05-11T01:53:49.910Z,63.35
2016-05-11T01:54:49.912Z,64.12
2016-05-11T01:55:49.915Z,64.12
2016-05-11T01:56:49.918Z,64.78
2016-05-11T01:57:49.921Z,65.07
2016-05-11T01:58:49.923Z,64.98
2016-05-11T01:59:49.926Z,65.45
2016-05-11T02:00:50.256Z,65.84
2016-05-11T02:01:49.915Z,65.61
2016-05-11T02:02:49.917Z,66.38
2016-05-11T02:03:49.937Z,66.09
2016-05-11T02:04:49.924Z,66.66
2016-05-11T02:05:49.926Z,66.66
2016-05-11T02:06:49.928Z,66.85
2016-05-11T02:07:49.775Z,66.95
2016-05-11T02:08:49.934Z,67.05
2016-05-11T02:09:49.936Z,66.95
2016-05-11T02:10:49.924Z,66.95
2016-05-11T02:11:49.942Z,67.05
2016-05-11T02:12:49.789Z,66.56
2016-05-11T02:13:49.947Z,66.47
2016-05-11T02:14:49.935Z,66.56
2016-05-11T02:15:49.938Z,66.38
2016-05-11T02:16:49.956Z,66.47
2016-05-11T02:17:49.989Z,66.19
2016-05-11T02:18:49.946Z,66.31
2016-05-11T02:19:49.949Z,66.38
2016-05-11T02:20:49.951Z,66.19
2016-05-11T02:21:49.954Z,66.41
2016-05-11T02:22:49.878Z,66.28
2016-05-11T02:23:49.880Z,65.71
2016-05-11T02:24:49.868Z,65.84
2016-05-11T02:25:49.964Z,65.8
2016-05-11T02:26:49.888Z,65.74
2016-05-11T02:27:49.720Z,65.93
2016-05-11T02:28:49.879Z,65.23
2016-05-11T02:29:49.881Z,66
2016-05-11T02:30:50.149Z,65.33
2016-05-11T02:31:49.949Z,65.14
2016-05-11T02:32:49.968Z,65.14
2016-05-11T02:33:49.954Z,64.94
2016-05-11T02:34:49.957Z,64.59
2016-05-11T02:35:49.959Z,64.78
2016-05-11T02:36:49.962Z,63.93
2016-05-11T02:37:49.965Z,64.12
2016-05-11T02:38:49.968Z,63.16
2016-05-11T02:39:49.846Z,63.64
2016-05-11T02:40:49.973Z,63.16
2016-05-11T02:41:49.976Z,63.26
2016-05-11T02:42:49.978Z,63.26
2016-05-11T02:43:49.981Z,63.26
2016-05-11T02:44:49.968Z,63.26
2016-05-11T02:45:49.987Z,62.59
2016-05-11T02:46:49.989Z,62.68
2016-05-11T02:47:49.977Z,62.4
2016-05-11T02:48:49.980Z,62.21
2016-05-11T02:49:49.982Z,62.21
2016-05-11T02:50:49.985Z,62.3
2016-05-11T02:51:49.988Z,62.4
2016-05-11T02:52:50.005Z,62.01
2016-05-11T02:53:49.977Z,61.72
2016-05-11T02:54:49.980Z,61.25
2016-05-11T02:55:49.982Z,60.39
2016-05-11T02:56:50.016Z,60.2
2016-05-11T02:57:49.831Z,60.23
2016-05-11T02:58:49.991Z,59.81
2016-05-11T02:59:49.978Z,59.53
2016-05-11T03:00:49.996Z,59.34
2016-05-11T03:01:49.998Z,58.86
2016-05-11T03:02:49.985Z,58.58
2016-05-11T03:03:49.987Z,58.22
2016-05-11T03:04:49.834Z,57.75
2016-05-11T03:05:49.994Z,57.93
2016-05-11T03:06:49.840Z,57.55
2016-05-11T03:07:49.999Z,57.36
2016-05-11T03:08:50.001Z,57.36
2016-05-11T03:09:50.004Z,57.26
2016-05-11T03:10:50.006Z,57.07
2016-05-11T03:11:49.994Z,56.98
2016-05-11T03:12:49.997Z,56.88
2016-05-11T03:13:50.015Z,56.88
2016-05-11T03:14:50.002Z,57.17
2016-05-11T03:15:50.474Z,57.07
2016-05-11T03:16:50.008Z,57.26
2016-05-11T03:17:50.011Z,57.26
2016-05-11T03:18:50.013Z,57.17
2016-05-11T03:19:50.016Z,56.98
2016-05-11T03:20:50.018Z,57.17
2016-05-11T03:21:50.021Z,57.26
2016-05-11T03:22:50.008Z,56.98
2016-05-11T03:23:50.010Z,57.07
2016-05-11T03:24:50.014Z,56.88
2016-05-11T03:25:50.016Z,56.98
2016-05-11T03:26:50.019Z,56.88
2016-05-11T03:27:50.022Z,57.07
2016-05-11T03:28:50.024Z,57.07
2016-05-11T03:29:50.011Z,57.2
2016-05-11T03:30:50.036Z,57.26
2016-05-11T03:31:50.078Z,56.79
2016-05-11T03:32:50.105Z,57.07
2016-05-11T03:33:50.148Z,57.26
2016-05-11T03:34:50.049Z,57.26
2016-05-11T03:35:50.228Z,57.75
2016-05-11T03:36:50.245Z,57.84
2016-05-11T03:37:50.262Z,57.93
2016-05-11T03:38:50.263Z,57.84
2016-05-11T03:39:50.296Z,58.03
2016-05-11T03:40:50.295Z,57.93
2016-05-11T03:41:50.303Z,58.22
2016-05-11T03:42:50.310Z,58.89
2016-05-11T03:43:50.318Z,58.8
2016-05-11T03:44:50.326Z,58.7
2016-05-11T03:45:50.692Z,59.27
2016-05-11T03:46:50.166Z,59.94
2016-05-11T03:47:50.342Z,60.49
2016-05-11T03:48:50.174Z,60.49
2016-05-11T03:49:50.351Z,60.87
2016-05-11T03:50:50.340Z,62.11
2016-05-11T03:51:50.358Z,62.65
2016-05-11T03:52:50.346Z,62.65
2016-05-11T03:53:50.349Z,63.03
2016-05-11T03:54:50.352Z,63.03
2016-05-11T03:55:50.355Z,63.23
2016-05-11T03:56:50.358Z,63.8
2016-05-11T03:57:50.361Z,63.99
2016-05-11T03:58:50.349Z,63.99
2016-05-11T03:59:50.195Z,63.99
2016-05-11T04:00:50.199Z,63.51
2016-05-11T04:01:50.358Z,63.23
2016-05-11T04:02:50.361Z,62.49
2016-05-11T04:03:50.364Z,62.11
2016-05-11T04:04:50.366Z,61.72
2016-05-11T04:05:50.368Z,61.06
2016-05-11T04:06:50.371Z,60.77
2016-05-11T04:07:50.359Z,60.71
2016-05-11T04:08:50.220Z,60.23
2016-05-11T04:09:50.364Z,60.61
2016-05-11T04:10:50.366Z,59.84
2016-05-11T04:11:50.368Z,59.94
2016-05-11T04:12:50.371Z,59.66
2016-05-11T04:13:50.375Z,59.56
2016-05-11T04:14:50.221Z,59.08
2016-05-11T04:15:50.380Z,58.51
2016-05-11T04:16:50.366Z,58.41
2016-05-11T04:17:50.385Z,58.61
2016-05-11T04:18:50.372Z,58.22
2016-05-11T04:19:50.374Z,57.87
2016-05-11T04:20:50.393Z,57.68
2016-05-11T04:21:50.380Z,57.2
2016-05-11T04:22:50.382Z,56.62
2016-05-11T04:23:50.385Z,56.82
2016-05-11T04:24:50.388Z,57.01
2016-05-11T04:25:50.391Z,57.2
2016-05-11T04:26:50.410Z,56.91
2016-05-11T04:27:50.396Z,57.29
2016-05-11T04:28:50.384Z,56.82
2016-05-11T04:29:50.355Z,57.01
2016-05-11T04:30:50.264Z,56.82
2016-05-11T04:31:50.313Z,56.72
2016-05-11T04:32:50.317Z,56.82
2016-05-11T04:33:50.334Z,56.43
2016-05-11T04:34:50.321Z,56.43
2016-05-11T04:35:50.324Z,56.72
2016-05-11T04:36:50.327Z,56.43
2016-05-11T04:37:50.344Z,56.05
2016-05-11T04:38:50.176Z,55.22
2016-05-11T04:39:50.319Z,55.12
2016-05-11T04:40:50.338Z,54.74
2016-05-11T04:41:50.341Z,54.55
2016-05-11T04:42:50.171Z,54.16
2016-05-11T04:43:50.346Z,53.78
2016-05-11T04:44:50.333Z,53.4
2016-05-11T04:45:50.351Z,53.49
2016-05-11T04:46:50.338Z,53.14
2016-05-11T04:47:50.341Z,52.56
2016-05-11T04:48:50.343Z,52.47
2016-05-11T04:49:50.346Z,51.89
2016-05-11T04:50:50.333Z,51.06
2016-05-11T04:51:50.351Z,50.2
2016-05-11T04:52:50.370Z,50.2
2016-05-11T04:53:50.357Z,50.29
2016-05-11T04:54:50.375Z,50.1
2016-05-11T04:55:50.347Z,50.29
2016-05-11T04:56:50.348Z,50.38
2016-05-11T04:57:50.352Z,50.38
2016-05-11T04:58:50.354Z,50.38
2016-05-11T04:59:50.357Z,50.58
2016-05-11T05:00:50.469Z,50.58
2016-05-11T05:01:50.348Z,50.29
2016-05-11T05:02:50.209Z,50.1
2016-05-11T05:03:50.368Z,50.29
2016-05-11T05:04:50.356Z,50.48
2016-05-11T05:05:50.373Z,50.38
2016-05-11T05:06:50.376Z,50.58
2016-05-11T05:07:50.394Z,50.48
2016-05-11T05:08:50.225Z,49.91
2016-05-11T05:09:50.369Z,49.52
2016-05-11T05:10:50.372Z,49.43
2016-05-11T05:11:50.374Z,49.16
2016-05-11T05:12:50.392Z,49.07
2016-05-11T05:13:50.380Z,48.78
2016-05-11T05:14:50.413Z,48.88
2016-05-11T05:15:50.416Z,48.97
2016-05-11T05:16:50.388Z,48.97
2016-05-11T05:17:50.390Z,49
2016-05-11T05:18:50.533Z,48.23
2016-05-11T05:19:50.396Z,47.17
2016-05-11T05:20:50.382Z,46.98
2016-05-11T05:21:50.448Z,46.6
2016-05-11T05:22:50.388Z,46.89
2016-05-11T05:23:50.390Z,46.43
2016-05-11T05:24:50.394Z,45.76
2016-05-11T05:25:50.395Z,45
2016-05-11T05:26:50.399Z,44.61
2016-05-11T05:27:50.245Z,44.51
2016-05-11T05:28:50.404Z,44.51
2016-05-11T05:29:50.406Z,45
2016-05-11T05:30:50.410Z,44.06
2016-05-11T05:31:50.412Z,42.52
2016-05-11T05:32:50.431Z,42.25
2016-05-11T05:33:50.418Z,42.25
2016-05-11T05:34:50.420Z,42.64
2016-05-11T05:35:50.423Z,42.83
2016-05-11T05:36:50.269Z,42.54
2016-05-11T05:37:50.428Z,42.25
2016-05-11T05:38:50.431Z,41.49
2016-05-11T05:39:50.434Z,40.33
2016-05-11T05:40:50.436Z,39.85
2016-05-11T05:41:50.439Z,39.58
2016-05-11T05:42:50.442Z,38.91
2016-05-11T05:43:50.444Z,39.29
2016-05-11T05:44:50.275Z,38.16
2016-05-11T05:45:50.294Z,37.68
2016-05-11T05:46:50.437Z,36.27
2016-05-11T05:47:50.486Z,35.52
2016-05-11T05:48:50.458Z,34.58
2016-05-11T05:49:50.461Z,33.26
2016-05-11T05:50:50.463Z,32.41
2016-05-11T05:51:50.451Z,30.79
2016-05-11T05:52:50.468Z,29.75
2016-05-11T05:53:50.471Z,28.69
2016-05-11T05:54:50.474Z,27.45
2016-05-11T05:55:50.476Z,27.64
2016-05-11T05:56:50.479Z,28.22
2016-05-11T05:57:50.482Z,29.17
2016-05-11T05:58:50.484Z,29.83
2016-05-11T05:59:50.487Z,30.51
2016-05-11T06:00:50.334Z,30.88
2016-05-11T06:01:50.492Z,31.63
2016-05-11T06:02:50.496Z,32.31
2016-05-11T06:03:50.342Z,32.59
2016-05-11T06:04:50.501Z,32.78
2016-05-11T06:05:50.519Z,33.25
2016-05-11T06:06:50.522Z,33.92
2016-05-11T06:07:50.525Z,33.92
2016-05-11T06:08:50.511Z,34.3
2016-05-11T06:09:50.375Z,34.78
2016-05-11T06:10:50.517Z,35.08
2016-05-11T06:11:50.379Z,35.56
2016-05-11T06:12:50.383Z,35.83
2016-05-11T06:13:50.541Z,36.51
2016-05-11T06:14:50.559Z,36.6
2016-05-11T06:15:50.546Z,37.27
2016-05-11T06:16:50.549Z,37.54
2016-05-11T06:17:50.552Z,37.54
2016-05-11T06:18:50.554Z,37.45
2016-05-11T06:19:54.964Z,37.54
2016-05-11T06:20:50.606Z,37.83
2016-05-11T06:21:53.171Z,38.22
2016-05-11T06:22:53.410Z,37.93
2016-05-11T06:23:55.083Z,38.04
2016-05-11T06:24:50.445Z,37.37
2016-05-11T06:25:54.620Z,37.76
2016-05-11T06:26:54.779Z,37.27
2016-05-11T06:27:52.016Z,37.66
2016-05-11T06:28:50.504Z,37.66
2016-05-11T06:29:50.599Z,37.27
2016-05-11T06:30:50.977Z,37.46
2016-05-11T06:31:50.604Z,37.18
2016-05-11T06:32:50.608Z,36.52
2016-05-11T06:33:50.610Z,36.43
2016-05-11T06:34:50.613Z,35.75
2016-05-11T06:35:50.616Z,35.48
2016-05-11T06:36:50.618Z,35.1
2016-05-11T06:37:50.621Z,34.34
2016-05-11T06:38:50.639Z,33.97
2016-05-11T06:39:50.486Z,33.1
2016-05-11T06:40:50.645Z,32.92
2016-05-11T06:41:50.647Z,32.73
2016-05-11T06:42:50.650Z,31.86
2016-05-11T06:43:50.652Z,31.4
2016-05-11T06:44:50.686Z,30.91
2016-05-11T06:45:51.112Z,30.54
2016-05-11T06:46:50.661Z,30.54
2016-05-11T06:47:50.664Z,30.63
2016-05-11T06:48:50.682Z,30.65
2016-05-11T06:49:50.685Z,30.65
2016-05-11T06:50:50.531Z,30.75
2016-05-11T06:51:50.533Z,31.02
2016-05-11T06:52:50.693Z,31.51
2016-05-11T06:53:50.711Z,32.26
2016-05-11T06:54:50.698Z,32.56
2016-05-11T06:55:50.716Z,33.02
2016-05-11T06:56:50.719Z,32.54
2016-05-11T06:57:50.721Z,32.54
2016-05-11T06:58:50.724Z,32.46
2016-05-11T06:59:50.571Z,32.56
2016-05-11T07:00:50.574Z,32.65
2016-05-11T07:01:50.749Z,32.46
2016-05-11T07:02:50.734Z,32.56
2016-05-11T07:03:50.785Z,32.65
2016-05-11T07:04:50.757Z,32.56
2016-05-11T07:05:50.759Z,31.88
2016-05-11T07:06:50.762Z,31.78
2016-05-11T07:07:50.608Z,31.78
2016-05-11T07:08:50.767Z,31.68
2016-05-11T07:09:50.770Z,31.02
2016-05-11T07:10:50.788Z,30.07
2016-05-11T07:11:50.791Z,29.59
2016-05-11T07:12:50.793Z,28.73
2016-05-11T07:13:50.797Z,27.7
2016-05-11T07:14:50.814Z,25.09
2016-05-11T07:15:50.677Z,23
2016-05-11T07:16:50.819Z,20.91
2016-05-11T07:17:50.822Z,18.99
2016-05-11T07:18:50.825Z,17.56
2016-05-11T07:19:50.843Z,16.31
2016-05-11T07:20:50.846Z,14.28
2016-05-11T07:21:50.833Z,13.43
2016-05-11T07:22:50.851Z,11.88
2016-05-11T07:23:50.854Z,10.53
2016-05-11T07:24:50.857Z,9.16
2016-05-11T07:25:50.874Z,8.48
2016-05-11T07:26:50.878Z,7.8
2016-05-11T07:27:50.881Z,7.32
2016-05-11T07:28:50.743Z,6.44
2016-05-11T07:29:50.901Z,5.85
2016-05-11T07:30:51.779Z,5.46
2016-05-11T07:31:50.907Z,5.36
2016-05-11T07:32:50.925Z,5.85
2016-05-11T07:33:50.928Z,4.76
2016-05-11T07:34:50.790Z,5.25
2016-05-11T07:35:50.949Z,5.34
2016-05-11T07:36:50.951Z,5.53
2016-05-11T07:37:50.798Z,6.51
2016-05-11T07:38:50.957Z,7.39
2016-05-11T07:39:50.992Z,8.65
2016-05-11T07:40:50.978Z,9.72
2016-05-11T07:41:50.997Z,10.49
2016-05-11T07:42:51.000Z,10.97
2016-05-11T07:43:51.002Z,12.13
2016-05-11T07:44:51.020Z,12.61
2016-05-11T07:45:51.476Z,13.87
2016-05-11T07:46:51.042Z,14.84
2016-05-11T07:47:51.028Z,15.22
2016-05-11T07:48:51.031Z,15.89
2016-05-11T07:49:51.049Z,15.89
2016-05-11T07:50:51.052Z,16.66
2016-05-11T07:51:51.054Z,16.27
2016-05-11T07:52:51.072Z,17.05
2016-05-11T07:53:51.076Z,16.67
2016-05-11T07:54:50.938Z,16.48
2016-05-11T07:55:51.097Z,17.16
2016-05-11T07:56:51.099Z,17.35
2016-05-11T07:57:51.101Z,17.93
2016-05-11T07:58:51.121Z,18.51
2016-05-11T07:59:51.124Z,18.6
2016-05-11T08:00:51.016Z,18.3
2016-05-11T08:01:50.988Z,18.3
2016-05-11T08:02:51.162Z,18.01
2016-05-11T08:03:51.149Z,17.82
2016-05-11T08:04:51.152Z,18.02
2016-05-11T08:05:51.015Z,17.82
2016-05-11T08:06:51.189Z,17.93
2016-05-11T08:07:51.176Z,17.93
2016-05-11T08:08:51.194Z,18.41
2016-05-11T08:09:51.197Z,19.08
2016-05-11T08:10:51.215Z,19.07
2016-05-11T08:11:51.234Z,19.45
2016-05-11T08:12:51.220Z,20.51
2016-05-11T08:13:51.223Z,20.99
2016-05-11T08:14:51.242Z,22.33
2016-05-11T08:15:51.088Z,22.31
2016-05-11T08:16:51.247Z,23.48
2016-05-11T08:17:51.265Z,24.13
2016-05-11T08:18:51.252Z,24.9
2016-05-11T08:19:51.255Z,25.29
2016-05-11T08:20:51.273Z,25.95
2016-05-11T08:21:51.291Z,27.2
2016-05-11T08:22:51.278Z,27.39
2016-05-11T08:23:51.297Z,27.76
2016-05-11T08:24:51.300Z,28.54
2016-05-11T08:25:51.302Z,28.91
2016-05-11T08:26:51.164Z,28.51
2016-05-11T08:27:51.324Z,28.51
2016-05-11T08:28:51.341Z,27.66
2016-05-11T08:29:51.344Z,27.47
2016-05-11T08:30:51.347Z,27.09
2016-05-11T08:31:51.349Z,25.94
2016-05-11T08:32:51.352Z,25.47
2016-05-11T08:33:51.371Z,24.8
2016-05-11T08:34:51.373Z,25.1
2016-05-11T08:35:51.392Z,24.82
2016-05-11T08:36:51.395Z,25.2
2016-05-11T08:37:51.397Z,24.83
2016-05-11T08:38:51.400Z,24.44
2016-05-11T08:39:51.246Z,23.77
2016-05-11T08:40:51.406Z,22.81
2016-05-11T08:41:51.439Z,21.77
2016-05-11T08:42:51.426Z,21.58
2016-05-11T08:43:51.304Z,20.91
2016-05-11T08:44:51.431Z,21.78
2016-05-11T08:45:52.215Z,22.35
2016-05-11T08:46:51.453Z,23.3
2016-05-11T08:47:51.455Z,24.45
2016-05-11T08:48:51.474Z,25.51
2016-05-11T08:49:51.476Z,26.46
2016-05-11T08:50:51.478Z,27.32
2016-05-11T08:51:51.481Z,27.7
2016-05-11T08:52:51.500Z,27.4
2016-05-11T08:53:51.502Z,27.7
2016-05-11T08:54:51.505Z,28.38
2016-05-11T08:55:51.508Z,28.66
2016-05-11T08:56:51.370Z,28.94
2016-05-11T08:57:51.529Z,28.85
2016-05-11T08:58:51.547Z,28.92
2016-05-11T08:59:51.535Z,29.6
2016-05-11T09:00:51.537Z,30.17
2016-05-11T09:01:51.540Z,30.65
2016-05-11T09:02:51.402Z,30.94
2016-05-11T09:03:51.561Z,31.02
2016-05-11T09:04:51.563Z,30.83
2016-05-11T09:05:51.425Z,31.41
2016-05-11T09:06:51.585Z,31.41
2016-05-11T09:07:51.587Z,31.89
2016-05-11T09:08:51.589Z,32.09
2016-05-11T09:09:51.593Z,31.78
2016-05-11T09:10:51.595Z,32.36
2016-05-11T09:11:51.614Z,32.75
2016-05-11T09:12:51.617Z,33.14
2016-05-11T09:13:51.619Z,33.02
2016-05-11T09:14:51.637Z,33.22
2016-05-11T09:16:14.624Z,33.91
2016-05-11T09:16:51.486Z,33.8
2016-05-11T09:17:51.645Z,33.23
2016-05-11T09:18:51.647Z,33.14
2016-05-11T09:19:51.667Z,32.96
2016-05-11T09:20:51.669Z,33.05
2016-05-11T09:21:51.516Z,32.97
2016-05-11T09:22:51.675Z,32.1
2016-05-11T09:23:51.677Z,30.66
2016-05-11T09:24:51.695Z,29.61
2016-05-11T09:25:51.714Z,28.56
2016-05-11T09:26:51.700Z,27.42
2016-05-11T09:27:51.703Z,27.72
2016-05-11T09:28:51.706Z,27.83
2016-05-11T09:29:51.708Z,26.86
2016-05-11T09:30:51.571Z,26.57
2016-05-11T09:31:51.730Z,26.49
2016-05-11T09:32:51.732Z,26.1
2016-05-11T09:33:51.579Z,25.73
2016-05-11T09:34:51.738Z,25.63
2016-05-11T09:35:51.756Z,25.53
2016-05-11T09:36:51.759Z,25.82
2016-05-11T09:37:51.761Z,26.21
2016-05-11T09:38:51.780Z,26.6
2016-05-11T09:39:51.611Z,26.11
2016-05-11T09:40:51.801Z,26.4
2016-05-11T09:41:51.788Z,26.5
2016-05-11T09:42:51.650Z,26.29
2016-05-11T09:43:51.793Z,27.15
2016-05-11T09:44:51.811Z,27.72
2016-05-11T09:45:52.017Z,28.5
2016-05-11T09:46:51.833Z,28.4
2016-05-11T09:47:51.664Z,28.4
2016-05-11T09:48:51.822Z,28.3
2016-05-11T09:49:51.825Z,28.4
2016-05-11T09:50:51.828Z,27.72
2016-05-11T09:51:51.847Z,27.53
2016-05-11T09:52:51.833Z,28.2
2016-05-11T09:53:51.852Z,28.5
2016-05-11T09:54:51.854Z,27.82
2016-05-11T09:55:51.700Z,28.11
2016-05-11T09:56:51.860Z,28.2
2016-05-11T09:57:51.878Z,28.4
2016-05-11T09:58:51.880Z,28.39
2016-05-11T09:59:51.883Z,28.49
2016-05-11T10:00:51.901Z,29.26
2016-05-11T10:01:51.888Z,29.26
2016-05-11T10:02:51.938Z,29.36
2016-05-11T10:03:51.909Z,29.64
2016-05-11T10:04:51.913Z,29.55
2016-05-11T10:05:51.759Z,29.26
2016-05-11T10:06:51.933Z,29.55
2016-05-11T10:07:51.921Z,29.36
2016-05-11T10:08:51.938Z,29.55
2016-05-11T10:09:51.941Z,29.36
2016-05-11T10:10:51.960Z,29.06
2016-05-11T10:11:51.962Z,28.77
2016-05-11T10:12:51.965Z,28.2
2016-05-11T10:13:51.968Z,27.92
2016-05-11T10:14:51.986Z,27.82
2016-05-11T10:15:52.239Z,28.4
2016-05-11T10:16:51.976Z,28.3
2016-05-11T10:17:51.994Z,28.5
2016-05-11T10:18:51.998Z,27.92
2016-05-11T10:19:52.000Z,27.73
2016-05-11T10:20:52.003Z,27.72
2016-05-11T10:21:52.005Z,27.43
2016-05-11T10:22:52.007Z,28.69
2016-05-11T10:23:52.026Z,29.24
2016-05-11T10:24:51.872Z,29.83
2016-05-11T10:25:52.031Z,30.39
2016-05-11T10:26:52.050Z,30.78
2016-05-11T10:27:51.880Z,30.68
2016-05-11T10:28:52.055Z,30.58
2016-05-11T10:29:52.058Z,30.6
2016-05-11T10:30:52.060Z,30.6
2016-05-11T10:32:43.580Z,30.02
2016-05-11T10:32:56.660Z,30.23
2016-05-11T10:33:56.678Z,30.04
2016-05-11T10:34:56.540Z,28.97
2016-05-11T10:35:56.700Z,29.08
2016-05-11T10:36:56.701Z,29.36
2016-05-11T10:37:56.689Z,29.26
2016-05-11T10:38:56.707Z,30.04
2016-05-11T10:39:56.710Z,29.94
2016-05-11T10:40:56.713Z,30.42
2016-05-11T10:41:56.560Z,30.31
2016-05-11T10:42:56.718Z,30.11
2016-05-11T10:43:56.720Z,30.11
2016-05-11T10:44:56.567Z,29.92
2016-05-11T10:45:57.257Z,29.26
2016-05-11T10:46:56.744Z,28.87
2016-05-11T10:47:56.747Z,29.08
2016-05-11T10:48:56.843Z,28.97
2016-05-11T10:49:56.753Z,29.85
2016-05-11T10:50:56.770Z,29.17
2016-05-11T10:51:56.614Z,29.74
2016-05-11T10:52:56.773Z,28.58
2016-05-11T10:53:58.045Z,28.58
2016-05-11T10:54:56.795Z,29.16
2016-05-11T10:55:56.781Z,30.13
2016-05-11T10:56:56.800Z,30.23
2016-05-11T10:57:56.802Z,29.74
2016-05-11T10:58:58.058Z,29.17
2016-05-11T10:59:56.839Z,28.4
2016-05-11T11:00:56.826Z,29.08
2016-05-11T11:01:56.828Z,29.37
2016-05-11T11:02:56.816Z,29.95
2016-05-11T11:03:57.209Z,29.64
2016-05-11T11:04:56.837Z,29.57
2016-05-11T11:05:56.839Z,29.94
2016-05-11T11:06:56.858Z,30.13
2016-05-11T11:07:56.861Z,30.04
2016-05-11T11:08:58.850Z,30.13
2016-05-11T11:09:56.866Z,30.04
2016-05-11T11:10:56.868Z,29.74
2016-05-11T11:11:56.872Z,29.57
2016-05-11T11:12:56.890Z,29.47
2016-05-11T11:13:57.392Z,29.84
2016-05-11T11:14:56.896Z,29.26
2016-05-11T11:15:56.898Z,30.13
2016-05-11T11:16:56.900Z,30.62
2016-05-11T11:17:56.903Z,30.23
2016-05-11T11:18:57.219Z,30.42
2016-05-11T11:19:56.956Z,30.32
2016-05-11T11:20:56.926Z,30.04
2016-05-11T11:21:56.774Z,29.64
2016-05-11T11:22:56.932Z,29.64
2016-05-11T11:23:57.781Z,29.55
2016-05-11T11:24:56.953Z,29.64
2016-05-11T11:25:56.800Z,29.94
2016-05-11T11:26:56.959Z,30.13
2016-05-11T11:27:56.961Z,30.32
2016-05-11T11:28:56.980Z,30.42
2016-05-11T11:29:56.967Z,30.32
2016-05-11T11:30:57.328Z,30.04
2016-05-11T11:31:57.003Z,29.94
2016-05-11T11:32:56.991Z,29.94
2016-05-11T11:33:58.011Z,30.13
2016-05-11T11:34:56.996Z,30.62
2016-05-11T11:35:56.999Z,30.71
2016-05-11T11:36:57.001Z,31.2
2016-05-11T11:37:57.004Z,30.79
2016-05-11T11:38:58.837Z,30.69
2016-05-11T11:39:56.884Z,30.6
2016-05-11T11:40:57.027Z,31.09
2016-05-11T11:41:56.874Z,31.76
2016-05-11T11:42:57.033Z,31.67
2016-05-11T11:43:57.223Z,31.76
2016-05-11T11:44:57.054Z,31.86
2016-05-11T11:45:57.213Z,31.67
2016-05-11T11:46:57.060Z,31.96
2016-05-11T11:47:57.077Z,31.28
2016-05-11T11:48:57.784Z,31.09
2016-05-11T11:49:57.068Z,30.79
2016-05-11T11:50:57.085Z,30.51
2016-05-11T11:51:57.087Z,30.21
2016-05-11T11:52:57.091Z,30.11
2016-05-11T11:53:57.109Z,30.02
2016-05-11T11:54:57.096Z,30.02
2016-05-11T11:55:57.114Z,30.41
2016-05-11T11:56:57.118Z,30.68
2016-05-11T11:57:57.120Z,31.16
2016-05-11T11:58:57.700Z,31.25
2016-05-11T11:59:57.126Z,31.56
2016-05-11T12:00:57.129Z,31.36
2016-05-11T12:01:57.131Z,30.98
2016-05-11T12:02:56.992Z,30.88
2016-05-11T12:03:57.136Z,30.58
2016-05-11T12:04:56.998Z,30.68
2016-05-11T12:05:57.172Z,31.16
2016-05-11T12:06:57.160Z,31.84
2016-05-11T12:07:57.163Z,32.71
2016-05-11T12:08:57.166Z,32.71
2016-05-11T12:09:57.183Z,32.91
2016-05-11T12:10:57.186Z,32.81
2016-05-11T12:11:57.189Z,33.12
2016-05-11T12:12:57.192Z,33.12
2016-05-11T12:13:57.194Z,33.12
2016-05-11T12:14:57.197Z,32.73
2016-05-11T12:15:57.387Z,32.94
2016-05-11T12:16:57.202Z,32.94
2016-05-11T12:17:57.065Z,33.23
2016-05-11T12:18:57.239Z,33.33
2016-05-11T12:19:57.226Z,33.42
2016-05-11T12:20:57.229Z,33.72
2016-05-11T12:21:57.232Z,33.34
2016-05-11T12:22:57.250Z,33.25
2016-05-11T12:23:57.253Z,33.23
2016-05-11T12:24:57.256Z,34.11
2016-05-11T12:25:57.258Z,33.91
2016-05-11T12:26:57.261Z,33.91
2016-05-11T12:27:57.264Z,34.01
2016-05-11T12:28:57.267Z,33.99
2016-05-11T12:29:57.269Z,34.01
2016-05-11T12:30:57.365Z,33.99
2016-05-11T12:31:57.289Z,33.52
2016-05-11T12:32:57.292Z,33.33
2016-05-11T12:33:57.295Z,33.33
2016-05-11T12:34:57.313Z,33.33
2016-05-11T12:35:57.331Z,32.94
2016-05-11T12:36:57.303Z,33.42
2016-05-11T12:37:57.394Z,33.04
2016-05-11T12:38:57.397Z,32.86
2016-05-11T12:39:57.447Z,32.76
2016-05-11T12:40:57.325Z,32.47
2016-05-11T12:41:57.547Z,32.47
2016-05-11T12:42:57.580Z,32.57
2016-05-11T12:43:57.600Z,32.59
2016-05-11T12:44:57.619Z,32.59
2016-05-11T12:45:58.139Z,32.59
2016-05-11T12:46:57.674Z,33.07
2016-05-11T12:47:57.672Z,32.78
2016-05-11T12:48:57.696Z,32.78
2016-05-11T12:49:57.705Z,33.17
2016-05-11T12:50:57.714Z,33.26
2016-05-11T12:51:57.723Z,34.14
2016-05-11T12:52:57.729Z,34.23
2016-05-11T12:53:57.750Z,34.61
2016-05-11T12:54:57.754Z,34.99
2016-05-11T12:55:57.759Z,34.99